Time;durP1;ratioP1;P1;durP2;ratioP2;P2;SDS_P1;SDS_P2;PMS_P1;PMS_P2;Temp;Humidity;BMP_temperature;BMP_pressure;BME280_temperature;BME280_humidity;BME280_pressure;Samples;Min_cycle;Max_cycle;Signal;HPM_P1;HPM_P2
2023/08/09 00:01:57;;;;;;;38.33;36.60;;;;;;;;;;5014233;28;20511;-42
2023/08/09 00:04:25;;;;;;;40.53;37.80;;;;;;;;;;5013926;28;20470;-41
2023/08/09 00:06:52;;;;;;;37.43;35.47;;;;;;;;;;5014366;28;20477;-45
2023/08/09 00:09:21;;;;;;;37.40;35.00;;;;;;;;;;5013114;28;20461;-43
2023/08/09 00:11:48;;;;;;;34.30;32.50;;;;;;;;;;5014435;28;20754;-42
2023/08/09 00:14:16;;;;;;;34.40;32.73;;;;;;;;;;5013840;28;20556;-41
2023/08/09 00:16:44;;;;;;;31.63;29.63;;;;;;;;;;5014119;28;20453;-42
2023/08/09 00:19:13;;;;;;;33.57;31.70;;;;;;;;;;5013528;28;20459;-42
2023/08/09 00:21:41;;;;;;;35.70;34.00;;;;;;;;;;5013496;28;20437;-41
2023/08/09 00:24:09;;;;;;;35.37;33.37;;;;;;;;;;5014480;28;20456;-44
2023/08/09 00:26:36;;;;;;;38.60;36.20;;;;;;;;;;5013804;28;20484;-41
2023/08/09 00:29:04;;;;;;;39.23;36.60;;;;;;;;;;5013458;28;20784;-41
2023/08/09 00:31:31;;;;;;;41.23;38.50;;;;;;;;;;5013211;28;20844;-44
2023/08/09 00:33:59;;;;;;;42.00;39.93;;;;;;;;;;5013168;28;20472;-43
2023/08/09 00:36:28;;;;;;;43.30;41.20;;;;;;;;;;5014075;28;20489;-42
2023/08/09 00:38:55;;;;;;;44.00;42.03;;;;;;;;;;5012992;28;20512;-42
2023/08/09 00:41:23;;;;;;;44.93;42.40;;;;;;;;;;5013059;28;20463;-43
2023/08/09 00:43:50;;;;;;;45.30;43.13;;;;;;;;;;5013228;28;20531;-44
2023/08/09 00:46:18;;;;;;;44.00;42.03;;;;;;;;;;5013219;28;20464;-44
2023/08/09 00:48:45;;;;;;;44.80;42.50;;;;;;;;;;5012552;28;20476;-42
2023/08/09 00:51:13;;;;;;;44.27;41.80;;;;;;;;;;5013049;28;20445;-43
2023/08/09 00:53:42;;;;;;;43.00;40.63;;;;;;;;;;5012687;28;20441;-42
2023/08/09 00:56:10;;;;;;;43.87;41.67;;;;;;;;;;5013495;28;20457;-45
2023/08/09 00:58:37;;;;;;;45.50;43.50;;;;;;;;;;5013232;28;20593;-44
2023/08/09 01:01:05;;;;;;;44.03;41.80;;;;;;;;;;5012942;28;20485;-42
2023/08/09 01:03:33;;;;;;;44.27;41.70;;;;;;;;;;5012234;28;20449;-42
2023/08/09 01:06:03;;;;;;;44.27;42.17;;;;;;;;;;5012769;28;20987;-42
2023/08/09 01:08:36;;;;;;;46.17;43.67;;;;;;;;;;5003395;28;20552;-41
2023/08/09 01:11:09;;;;;;;44.43;42.00;;;;;;;;;;5012927;28;20469;-42
2023/08/09 01:13:37;;;;;;;44.00;42.20;;;;;;;;;;5012096;28;20483;-42
2023/08/09 01:16:05;;;;;;;44.57;41.77;;;;;;;;;;5013372;28;20476;-44
2023/08/09 01:18:33;;;;;;;44.13;41.63;;;;;;;;;;5012179;28;20476;-42
2023/08/09 01:21:02;;;;;;;43.93;41.60;;;;;;;;;;5012668;28;20843;-42
2023/08/09 01:23:32;;;;;;;42.80;40.60;;;;;;;;;;5013292;28;20488;-42
2023/08/09 01:26:00;;;;;;;45.50;42.93;;;;;;;;;;5013673;28;20545;-44
2023/08/09 01:28:27;;;;;;;40.60;38.67;;;;;;;;;;5012533;28;20847;-44
2023/08/09 01:30:55;;;;;;;40.93;38.67;;;;;;;;;;5011946;28;20837;-43
2023/08/09 01:33:22;;;;;;;39.03;36.43;;;;;;;;;;5012825;28;20981;-42
2023/08/09 01:35:52;;;;;;;36.97;35.03;;;;;;;;;;5012673;28;20487;-42
2023/08/09 01:38:23;;;;;;;32.20;29.70;;;;;;;;;;5000669;28;20437;-42
2023/08/09 01:40:53;;;;;;;29.40;27.43;;;;;;;;;;5012413;28;20492;-43
2023/08/09 01:43:21;;;;;;;30.03;27.97;;;;;;;;;;5013019;28;20529;-44
2023/08/09 01:45:49;;;;;;;30.53;28.57;;;;;;;;;;5011993;28;21145;-42
2023/08/09 01:48:17;;;;;;;29.87;28.10;;;;;;;;;;5000701;28;20437;-42
2023/08/09 01:50:45;;;;;;;30.67;28.53;;;;;;;;;;5012690;28;20465;-43
2023/08/09 01:53:13;;;;;;;31.03;28.73;;;;;;;;;;5012325;28;20971;-43
2023/08/09 01:55:41;;;;;;;30.30;28.03;;;;;;;;;;5012627;28;20482;-44
2023/08/09 01:58:09;;;;;;;31.23;29.10;;;;;;;;;;5011542;28;20445;-42
2023/08/09 02:00:37;;;;;;;32.30;30.23;;;;;;;;;;5012106;28;20464;-44
2023/08/09 02:03:06;;;;;;;31.77;29.80;;;;;;;;;;5011852;28;20456;-44
2023/08/09 02:05:34;;;;;;;33.60;31.93;;;;;;;;;;5011649;28;20456;-42
2023/08/09 02:08:04;;;;;;;31.63;29.37;;;;;;;;;;5011930;28;20863;-44
2023/08/09 02:10:32;;;;;;;31.80;29.57;;;;;;;;;;5012707;28;20504;-43
2023/08/09 02:12:59;;;;;;;32.33;30.87;;;;;;;;;;5013030;28;20525;-42
2023/08/09 02:15:28;;;;;;;33.50;31.80;;;;;;;;;;5012804;28;20511;-42
2023/08/09 02:17:57;;;;;;;34.73;32.20;;;;;;;;;;5011790;28;20433;-41
2023/08/09 02:20:27;;;;;;;34.77;32.70;;;;;;;;;;5009916;28;20465;-42
2023/08/09 02:22:55;;;;;;;31.23;29.37;;;;;;;;;;5014106;28;20468;-42
2023/08/09 02:25:23;;;;;;;30.13;28.20;;;;;;;;;;5014225;28;20457;-41
2023/08/09 02:27:51;;;;;;;32.67;30.93;;;;;;;;;;5014021;28;20460;-42
2023/08/09 02:30:18;;;;;;;33.10;30.80;;;;;;;;;;5013771;28;20469;-42
2023/08/09 02:32:47;;;;;;;32.00;30.17;;;;;;;;;;5013831;28;20479;-42
2023/08/09 02:35:15;;;;;;;33.13;30.77;;;;;;;;;;5013854;28;20484;-42
2023/08/09 02:37:42;;;;;;;32.07;30.13;;;;;;;;;;5013605;28;20437;-47
2023/08/09 02:40:10;;;;;;;31.73;29.00;;;;;;;;;;5013536;28;20476;-42
2023/08/09 02:42:38;;;;;;;29.70;28.10;;;;;;;;;;5013588;28;20511;-42
2023/08/09 02:45:06;;;;;;;29.63;27.70;;;;;;;;;;5013866;28;20441;-42
2023/08/09 02:47:34;;;;;;;33.23;30.53;;;;;;;;;;5012978;28;20437;-44
2023/08/09 02:50:03;;;;;;;32.53;30.53;;;;;;;;;;5013542;28;20933;-42
2023/08/09 02:52:30;;;;;;;32.53;30.60;;;;;;;;;;5013368;28;20938;-41
2023/08/09 02:54:58;;;;;;;33.60;31.20;;;;;;;;;;5013667;28;20472;-43
2023/08/09 02:57:26;;;;;;;29.30;27.83;;;;;;;;;;5013381;28;20429;-44
2023/08/09 02:59:53;;;;;;;30.30;28.60;;;;;;;;;;5012925;28;20551;-45
2023/08/09 03:02:21;;;;;;;31.90;29.70;;;;;;;;;;5013869;28;20524;-43
2023/08/09 03:04:48;;;;;;;32.13;30.23;;;;;;;;;;5013393;28;20442;-42
2023/08/09 03:07:17;;;;;;;30.13;28.87;;;;;;;;;;5013679;28;20440;-42
2023/08/09 03:09:46;;;;;;;32.67;31.37;;;;;;;;;;5013114;28;20503;-43
2023/08/09 03:12:13;;;;;;;31.57;30.17;;;;;;;;;;5013437;28;20524;-42
2023/08/09 03:14:41;;;;;;;32.40;30.90;;;;;;;;;;5012832;28;20448;-44
2023/08/09 03:17:08;;;;;;;32.90;30.90;;;;;;;;;;5013602;28;20874;-42
2023/08/09 03:19:36;;;;;;;29.90;28.50;;;;;;;;;;5012477;28;20459;-43
2023/08/09 03:22:03;;;;;;;29.17;27.70;;;;;;;;;;5013221;28;20449;-42
2023/08/09 03:24:32;;;;;;;27.03;25.83;;;;;;;;;;5013056;28;20915;-42
2023/08/09 03:27:00;;;;;;;29.87;28.33;;;;;;;;;;5013058;28;20461;-42
2023/08/09 03:29:28;;;;;;;29.30;28.00;;;;;;;;;;5012416;28;20830;-42
2023/08/09 03:31:56;;;;;;;31.37;29.40;;;;;;;;;;5012584;28;20437;-42
2023/08/09 03:34:24;;;;;;;28.83;26.63;;;;;;;;;;5012103;28;20801;-42
2023/08/09 03:36:52;;;;;;;28.60;27.40;;;;;;;;;;5013567;28;20563;-42
2023/08/09 03:39:21;;;;;;;30.40;28.40;;;;;;;;;;5013479;28;20526;-44
2023/08/09 03:41:50;;;;;;;29.23;27.80;;;;;;;;;;5013828;28;20437;-42
2023/08/09 03:44:17;;;;;;;29.47;27.77;;;;;;;;;;5013791;28;20440;-42
2023/08/09 03:46:45;;;;;;;28.07;26.67;;;;;;;;;;5013821;28;20461;-42
2023/08/09 03:49:12;;;;;;;29.47;27.60;;;;;;;;;;5013487;28;20536;-45
2023/08/09 03:51:43;;;;;;;29.33;27.70;;;;;;;;;;5013478;28;21005;-42
2023/08/09 03:54:10;;;;;;;30.57;28.60;;;;;;;;;;5013880;28;20904;-42
2023/08/09 03:56:38;;;;;;;28.67;26.87;;;;;;;;;;5013739;28;20475;-42
2023/08/09 03:59:07;;;;;;;28.70;26.90;;;;;;;;;;5013353;28;20524;-43
2023/08/09 04:01:34;;;;;;;27.80;26.00;;;;;;;;;;5013393;28;20524;-42
2023/08/09 04:04:03;;;;;;;28.87;27.47;;;;;;;;;;5013347;28;20432;-44
2023/08/09 04:06:34;;;;;;;31.53;29.77;;;;;;;;;;5013262;28;20866;-43
2023/08/09 04:09:02;;;;;;;31.00;29.10;;;;;;;;;;5013181;28;20437;-42
2023/08/09 04:11:30;;;;;;;32.57;30.77;;;;;;;;;;5013437;28;20455;-43
2023/08/09 04:13:58;;;;;;;35.03;32.40;;;;;;;;;;5013484;28;20436;-42
2023/08/09 04:16:26;;;;;;;32.90;31.17;;;;;;;;;;5013142;28;20564;-43
2023/08/09 04:18:54;;;;;;;32.80;30.83;;;;;;;;;;5012980;28;20433;-44
2023/08/09 04:21:21;;;;;;;32.43;31.03;;;;;;;;;;5013265;28;20440;-44
2023/08/09 04:23:49;;;;;;;33.53;31.17;;;;;;;;;;5013139;28;20448;-44
2023/08/09 04:26:16;;;;;;;34.70;32.60;;;;;;;;;;5013231;28;20487;-43
2023/08/09 04:28:45;;;;;;;31.47;29.47;;;;;;;;;;5013116;28;20436;-43
2023/08/09 04:31:13;;;;;;;32.90;30.63;;;;;;;;;;5012393;28;20473;-42
2023/08/09 04:33:49;;;;;;;32.50;30.20;;;;;;;;;;5012877;28;20439;-41
2023/08/09 04:36:17;;;;;;;36.33;34.17;;;;;;;;;;5012968;28;20571;-41
2023/08/09 04:38:45;;;;;;;34.27;31.87;;;;;;;;;;5013011;28;20441;-43
2023/08/09 04:41:12;;;;;;;33.70;31.93;;;;;;;;;;5012418;28;20468;-42
2023/08/09 04:43:42;;;;;;;33.40;31.40;;;;;;;;;;5012349;28;20437;-42
2023/08/09 04:46:10;;;;;;;33.63;31.67;;;;;;;;;;5012614;28;20449;-43
2023/08/09 04:48:38;;;;;;;31.00;28.87;;;;;;;;;;5013011;28;20433;-42
2023/08/09 04:51:08;;;;;;;29.93;28.20;;;;;;;;;;5012188;28;20469;-42
2023/08/09 04:53:36;;;;;;;28.07;26.37;;;;;;;;;;5012767;28;20443;-43
2023/08/09 04:56:04;;;;;;;30.07;27.97;;;;;;;;;;5012624;28;20538;-42
2023/08/09 04:58:31;;;;;;;31.33;28.87;;;;;;;;;;5012419;28;20448;-43
2023/08/09 05:00:59;;;;;;;28.90;26.83;;;;;;;;;;5011912;28;20475;-42
2023/08/09 05:03:27;;;;;;;29.73;27.70;;;;;;;;;;5012556;28;20440;-43
2023/08/09 05:05:54;;;;;;;27.53;25.53;;;;;;;;;;5012380;28;20464;-42
2023/08/09 05:08:23;;;;;;;28.40;26.50;;;;;;;;;;5012459;28;20460;-41
2023/08/09 05:10:51;;;;;;;27.57;26.00;;;;;;;;;;5011972;28;20476;-42
2023/08/09 05:13:20;;;;;;;28.03;26.30;;;;;;;;;;5012032;28;20437;-41
2023/08/09 05:15:48;;;;;;;29.00;27.00;;;;;;;;;;5012612;28;20453;-42
2023/08/09 05:18:16;;;;;;;28.47;26.67;;;;;;;;;;5012427;28;20468;-42
2023/08/09 05:20:42;;;;;;;29.00;26.47;;;;;;;;;;5011831;28;20456;-42
2023/08/09 05:23:10;;;;;;;27.93;26.23;;;;;;;;;;5011950;28;20969;-43
2023/08/09 05:25:41;;;;;;;29.60;27.30;;;;;;;;;;5012135;28;20555;-42
2023/08/09 05:28:09;;;;;;;28.33;26.93;;;;;;;;;;5012190;28;20460;-41
2023/08/09 05:30:36;;;;;;;28.77;26.87;;;;;;;;;;5011851;28;20496;-43
2023/08/09 05:33:04;;;;;;;29.77;28.03;;;;;;;;;;5011887;28;20528;-43
2023/08/09 05:35:32;;;;;;;29.63;27.70;;;;;;;;;;5011906;28;21023;-45
2023/08/09 05:37:59;;;;;;;27.40;26.00;;;;;;;;;;5012131;28;20578;-42
2023/08/09 05:40:26;;;;;;;29.40;27.53;;;;;;;;;;5010633;28;20564;-43
2023/08/09 05:42:55;;;;;;;28.37;26.40;;;;;;;;;;5011481;28;20520;-43
2023/08/09 05:45:23;;;;;;;31.63;28.57;;;;;;;;;;5011774;28;21049;-42
2023/08/09 05:47:50;;;;;;;27.90;26.20;;;;;;;;;;5011949;28;20464;-42
2023/08/09 05:50:18;;;;;;;29.93;27.63;;;;;;;;;;5011585;28;20461;-45
2023/08/09 05:52:45;;;;;;;29.53;26.43;;;;;;;;;;5011551;28;20436;-43
2023/08/09 05:55:13;;;;;;;31.23;29.20;;;;;;;;;;5011676;28;20495;-43
2023/08/09 05:57:40;;;;;;;29.87;27.93;;;;;;;;;;5011699;28;20476;-42
2023/08/09 06:00:15;;;;;;;29.63;27.40;;;;;;;;;;5011490;28;20468;-43
2023/08/09 06:02:44;;;;;;;29.13;27.17;;;;;;;;;;5011522;28;20437;-42
2023/08/09 06:05:17;;;;;;;29.33;27.37;;;;;;;;;;5011465;28;20492;-42
2023/08/09 06:07:44;;;;;;;25.67;23.93;;;;;;;;;;5012031;28;20924;-43
2023/08/09 06:10:12;;;;;;;23.70;22.33;;;;;;;;;;5011383;28;20905;-41
2023/08/09 06:12:39;;;;;;;21.30;19.70;;;;;;;;;;5011372;28;20927;-42
2023/08/09 06:15:07;;;;;;;19.93;18.53;;;;;;;;;;5011577;28;20428;-44
2023/08/09 06:17:36;;;;;;;20.67;19.07;;;;;;;;;;5011819;28;20499;-42
2023/08/09 06:20:05;;;;;;;17.93;16.70;;;;;;;;;;5011132;28;20453;-44
2023/08/09 06:22:33;;;;;;;17.87;16.47;;;;;;;;;;5011312;28;20456;-43
2023/08/09 06:25:01;;;;;;;17.20;15.43;;;;;;;;;;5011646;28;20455;-41
2023/08/09 06:27:29;;;;;;;16.37;15.17;;;;;;;;;;5011517;28;20429;-43
2023/08/09 06:29:56;;;;;;;14.30;13.10;;;;;;;;;;5011133;28;20461;-42
2023/08/09 06:32:24;;;;;;;12.83;11.60;;;;;;;;;;5011343;28;20968;-40
2023/08/09 06:34:52;;;;;;;9.63;8.97;;;;;;;;;;5011770;28;20436;-40
2023/08/09 06:37:20;;;;;;;10.00;7.93;;;;;;;;;;5011443;28;20479;-41
2023/08/09 06:39:48;;;;;;;10.37;9.47;;;;;;;;;;5011240;28;20491;-43
2023/08/09 06:42:16;;;;;;;11.50;9.40;;;;;;;;;;5011227;28;20502;-44
2023/08/09 06:44:44;;;;;;;11.50;10.53;;;;;;;;;;5011399;28;20451;-45
2023/08/09 06:47:11;;;;;;;12.17;10.40;;;;;;;;;;5011318;28;21261;-43
2023/08/09 06:49:39;;;;;;;16.17;10.47;;;;;;;;;;5011139;28;20537;-42
2023/08/09 06:52:08;;;;;;;21.70;11.27;;;;;;;;;;5011203;28;21056;-45
2023/08/09 06:54:35;;;;;;;13.40;11.53;;;;;;;;;;5011575;28;20460;-45
2023/08/09 06:57:03;;;;;;;13.43;11.10;;;;;;;;;;5011226;28;20505;-42
2023/08/09 06:59:30;;;;;;;11.93;10.73;;;;;;;;;;5010693;28;20461;-41
2023/08/09 07:01:58;;;;;;;15.73;10.57;;;;;;;;;;5011192;28;20443;-42
2023/08/09 07:04:26;;;;;;;13.20;10.40;;;;;;;;;;5011229;28;20471;-43
2023/08/09 07:06:54;;;;;;;14.83;8.27;;;;;;;;;;5011798;28;20460;-43
2023/08/09 07:09:23;;;;;;;12.40;8.40;;;;;;;;;;5014380;28;20538;-43
2023/08/09 07:11:50;;;;;;;13.60;8.40;;;;;;;;;;5014409;28;20448;-43
2023/08/09 07:14:18;;;;;;;14.90;8.53;;;;;;;;;;5014773;28;20432;-43
2023/08/09 07:16:45;;;;;;;9.97;7.00;;;;;;;;;;5014424;28;20518;-44
2023/08/09 07:19:13;;;;;;;10.37;7.40;;;;;;;;;;5013946;28;21015;-44
2023/08/09 07:21:40;;;;;;;11.67;7.87;;;;;;;;;;5014193;28;20429;-43
2023/08/09 07:24:08;;;;;;;15.03;8.70;;;;;;;;;;5014567;28;20872;-42
2023/08/09 07:26:37;;;;;;;15.10;7.43;;;;;;;;;;5014159;28;20455;-41
2023/08/09 07:29:05;;;;;;;11.17;7.07;;;;;;;;;;5014093;28;20432;-43
2023/08/09 07:31:32;;;;;;;11.47;8.20;;;;;;;;;;5014239;28;20875;-42
2023/08/09 07:33:59;;;;;;;14.27;8.63;;;;;;;;;;5014234;28;20531;-44
2023/08/09 07:36:27;;;;;;;9.83;7.30;;;;;;;;;;5014169;28;20491;-43
2023/08/09 07:38:55;;;;;;;11.37;9.77;;;;;;;;;;5013546;28;20499;-42
2023/08/09 07:41:22;;;;;;;11.33;10.20;;;;;;;;;;5013806;28;20775;-42
2023/08/09 07:43:51;;;;;;;13.87;11.50;;;;;;;;;;5014249;28;20437;-41
2023/08/09 07:46:19;;;;;;;12.67;11.80;;;;;;;;;;5014139;28;20494;-42
2023/08/09 07:48:46;;;;;;;11.77;10.77;;;;;;;;;;5014148;28;21021;-43
2023/08/09 07:51:14;;;;;;;15.23;11.17;;;;;;;;;;5013484;28;20471;-43
2023/08/09 07:53:41;;;;;;;16.03;12.00;;;;;;;;;;5013713;28;20520;-44
2023/08/09 07:56:13;;;;;;;11.63;9.73;;;;;;;;;;5013679;28;20967;-42
2023/08/09 07:58:41;;;;;;;12.63;11.50;;;;;;;;;;5013755;28;20499;-42
2023/08/09 08:01:10;;;;;;;12.50;9.83;;;;;;;;;;5013252;28;20461;-42
2023/08/09 08:03:37;;;;;;;9.30;8.43;;;;;;;;;;5013644;28;20519;-44
2023/08/09 08:06:05;;;;;;;9.97;8.43;;;;;;;;;;5013209;28;20460;-44
2023/08/09 08:08:34;;;;;;;9.47;8.47;;;;;;;;;;5013489;28;20432;-42
2023/08/09 08:11:01;;;;;;;12.53;7.20;;;;;;;;;;5012738;28;21010;-42
2023/08/09 08:13:29;;;;;;;14.10;8.90;;;;;;;;;;5013439;28;20443;-42
2023/08/09 08:15:56;;;;;;;10.13;7.80;;;;;;;;;;5013344;28;20448;-42
2023/08/09 08:18:26;;;;;;;13.20;7.83;;;;;;;;;;5012699;28;20468;-43
2023/08/09 08:20:55;;;;;;;10.83;7.33;;;;;;;;;;5013115;28;20466;-42
2023/08/09 08:23:22;;;;;;;12.60;6.80;;;;;;;;;;5013009;28;20536;-43
2023/08/09 08:25:50;;;;;;;11.93;7.23;;;;;;;;;;5013174;28;20452;-42
2023/08/09 08:28:17;;;;;;;8.30;6.30;;;;;;;;;;5013320;28;20515;-43
2023/08/09 08:30:45;;;;;;;8.50;5.90;;;;;;;;;;5012417;28;20556;-46
2023/08/09 08:33:14;;;;;;;12.70;5.70;;;;;;;;;;5011925;28;20441;-44
2023/08/09 08:35:48;;;;;;;8.93;5.87;;;;;;;;;;5013237;28;20492;-43
2023/08/09 08:38:17;;;;;;;10.60;6.30;;;;;;;;;;5013155;28;20908;-43
2023/08/09 08:40:45;;;;;;;10.33;5.70;;;;;;;;;;5012610;28;20503;-43
2023/08/09 08:43:13;;;;;;;8.63;4.83;;;;;;;;;;5012719;28;20440;-42
2023/08/09 08:45:41;;;;;;;7.70;5.00;;;;;;;;;;5012782;28;20796;-43
2023/08/09 08:48:10;;;;;;;6.57;5.67;;;;;;;;;;5012995;28;20502;-43
2023/08/09 08:50:38;;;;;;;7.80;4.60;;;;;;;;;;5012720;28;20765;-42
2023/08/09 08:53:08;;;;;;;10.33;6.00;;;;;;;;;;5012568;28;20502;-42
2023/08/09 08:55:35;;;;;;;10.13;6.00;;;;;;;;;;5012741;28;20455;-42
2023/08/09 08:58:03;;;;;;;14.43;5.63;;;;;;;;;;5012645;28;20433;-45
2023/08/09 09:00:31;;;;;;;11.57;5.90;;;;;;;;;;5012112;28;20472;-43
2023/08/09 09:02:59;;;;;;;11.87;6.53;;;;;;;;;;5012246;28;20931;-42
2023/08/09 09:05:27;;;;;;;10.80;6.70;;;;;;;;;;5012447;28;20455;-44
2023/08/09 09:07:56;;;;;;;11.40;6.40;;;;;;;;;;5012537;28;20436;-43
2023/08/09 09:10:26;;;;;;;12.47;6.80;;;;;;;;;;5012004;28;20487;-45
2023/08/09 09:12:55;;;;;;;14.23;6.70;;;;;;;;;;5012220;28;20437;-42
2023/08/09 09:15:24;;;;;;;12.40;6.33;;;;;;;;;;5012718;28;20815;-43
2023/08/09 09:17:51;;;;;;;9.67;5.87;;;;;;;;;;5012490;28;20433;-42
2023/08/09 09:20:23;;;;;;;15.17;6.00;;;;;;;;;;5011813;28;20467;-42
2023/08/09 09:22:50;;;;;;;13.70;6.20;;;;;;;;;;5012121;28;20894;-43
2023/08/09 09:25:18;;;;;;;11.93;6.30;;;;;;;;;;5011961;28;20460;-44
2023/08/09 09:27:49;;;;;;;12.67;5.90;;;;;;;;;;5012466;28;20444;-41
2023/08/09 09:30:19;;;;;;;9.13;5.83;;;;;;;;;;5010939;28;21018;-42
2023/08/09 09:32:55;;;;;;;12.37;5.63;;;;;;;;;;5011928;28;20523;-42
2023/08/09 09:35:23;;;;;;;14.83;6.17;;;;;;;;;;5011944;28;21175;-44
2023/08/09 09:37:51;;;;;;;13.03;6.60;;;;;;;;;;5011802;28;20844;-42
2023/08/09 09:40:22;;;;;;;14.43;5.87;;;;;;;;;;5011347;28;20461;-44
2023/08/09 09:42:53;;;;;;;11.97;5.43;;;;;;;;;;5011974;28;20841;-44
2023/08/09 09:45:22;;;;;;;14.20;5.60;;;;;;;;;;5012169;28;20488;-42
2023/08/09 09:47:50;;;;;;;10.50;5.57;;;;;;;;;;5012016;28;20482;-42
2023/08/09 09:50:18;;;;;;;12.80;6.67;;;;;;;;;;5011492;28;20499;-42
2023/08/09 09:52:46;;;;;;;13.17;4.90;;;;;;;;;;5011601;28;20460;-42
2023/08/09 09:55:16;;;;;;;11.40;5.50;;;;;;;;;;5011982;28;20838;-42
2023/08/09 09:57:43;;;;;;;6.10;4.47;;;;;;;;;;5011907;28;20425;-43
2023/08/09 10:00:14;;;;;;;7.90;5.10;;;;;;;;;;5011386;28;20471;-42
2023/08/09 10:02:45;;;;;;;9.23;4.27;;;;;;;;;;5011563;28;20949;-42
2023/08/09 10:05:13;;;;;;;7.33;4.30;;;;;;;;;;5011290;28;20464;-42
2023/08/09 10:07:43;;;;;;;12.93;5.03;;;;;;;;;;5011708;28;21140;-42
2023/08/09 10:10:13;;;;;;;9.63;4.47;;;;;;;;;;5011471;28;20471;-42
2023/08/09 10:12:41;;;;;;;9.60;5.70;;;;;;;;;;5011615;28;20433;-42
2023/08/09 10:15:10;;;;;;;13.97;5.60;;;;;;;;;;5011779;28;20479;-45
2023/08/09 10:17:40;;;;;;;5.20;4.13;;;;;;;;;;5011519;28;20978;-41
2023/08/09 10:20:10;;;;;;;10.60;3.70;;;;;;;;;;5011099;28;20522;-42
2023/08/09 10:22:38;;;;;;;9.97;4.77;;;;;;;;;;5011263;28;20490;-41
2023/08/09 10:25:09;;;;;;;7.30;4.80;;;;;;;;;;5011518;28;20472;-42
2023/08/09 10:27:50;;;;;;;4.73;3.77;;;;;;;;;;5011538;28;20502;-42
2023/08/09 10:30:19;;;;;;;9.33;4.93;;;;;;;;;;5011231;28;21137;-42
2023/08/09 10:32:52;;;;;;;10.30;4.60;;;;;;;;;;5011464;28;20439;-41
2023/08/09 10:35:21;;;;;;;8.27;4.30;;;;;;;;;;5011601;28;20460;-44
2023/08/09 10:37:48;;;;;;;14.87;4.87;;;;;;;;;;5011455;28;20439;-44
2023/08/09 10:40:16;;;;;;;8.20;4.10;;;;;;;;;;5010853;28;20501;-42
2023/08/09 10:42:45;;;;;;;8.57;4.23;;;;;;;;;;5013574;28;20432;-41
2023/08/09 10:45:13;;;;;;;14.13;5.03;;;;;;;;;;5015290;28;20440;-41
2023/08/09 10:47:41;;;;;;;9.03;4.10;;;;;;;;;;5015098;28;20947;-43
2023/08/09 10:50:14;;;;;;;8.13;4.07;;;;;;;;;;5014511;28;20539;-42
2023/08/09 10:52:42;;;;;;;12.97;4.90;;;;;;;;;;5015199;28;20781;-42
2023/08/09 10:55:26;;;;;;;6.83;4.00;;;;;;;;;;5014975;28;20840;-42
2023/08/09 10:57:54;;;;;;;9.63;4.23;;;;;;;;;;5015033;28;20436;-44
2023/08/09 11:00:23;;;;;;;10.97;4.87;;;;;;;;;;5014409;28;20890;-44
2023/08/09 11:02:51;;;;;;;11.00;4.43;;;;;;;;;;5014560;28;20432;-41
2023/08/09 11:05:21;;;;;;;12.90;5.53;;;;;;;;;;5014330;28;20484;-43
2023/08/09 11:07:50;;;;;;;11.87;5.43;;;;;;;;;;5014860;28;20515;-43
2023/08/09 11:10:29;;;;;;;11.83;4.67;;;;;;;;;;5014289;28;20491;-43
2023/08/09 11:12:56;;;;;;;11.37;5.80;;;;;;;;;;5014543;28;20432;-43
2023/08/09 11:15:24;;;;;;;7.93;4.40;;;;;;;;;;5014577;28;20818;-44
2023/08/09 11:17:51;;;;;;;10.83;4.60;;;;;;;;;;5014472;28;20507;-45
2023/08/09 11:20:20;;;;;;;8.53;4.67;;;;;;;;;;5013987;28;21113;-42
2023/08/09 11:22:52;;;;;;;14.30;4.57;;;;;;;;;;5014170;28;20449;-44
2023/08/09 11:25:20;;;;;;;7.50;4.60;;;;;;;;;;5014282;28;21045;-42
2023/08/09 11:27:50;;;;;;;12.57;4.40;;;;;;;;;;5014377;28;20447;-43
2023/08/09 11:30:18;;;;;;;13.33;5.37;;;;;;;;;;5013877;28;20478;-43
2023/08/09 11:32:45;;;;;;;6.03;3.70;;;;;;;;;;5014050;28;20530;-42
2023/08/09 11:35:13;;;;;;;7.80;4.57;;;;;;;;;;5014341;28;20856;-43
2023/08/09 11:37:42;;;;;;;4.77;3.30;;;;;;;;;;5014418;28;20503;-42
2023/08/09 11:40:12;;;;;;;10.00;4.40;;;;;;;;;;5013683;28;20556;-44
2023/08/09 11:42:39;;;;;;;6.23;4.13;;;;;;;;;;5013859;28;20519;-44
2023/08/09 11:45:09;;;;;;;10.10;4.43;;;;;;;;;;5013964;28;20468;-42
2023/08/09 11:47:36;;;;;;;7.63;4.40;;;;;;;;;;5013935;28;20934;-42
2023/08/09 11:50:05;;;;;;;9.63;4.77;;;;;;;;;;5013179;28;20457;-45
2023/08/09 11:52:33;;;;;;;10.80;5.10;;;;;;;;;;5013819;28;20417;-42
2023/08/09 11:55:05;;;;;;;8.40;3.47;;;;;;;;;;5012745;28;21022;-44
2023/08/09 11:57:32;;;;;;;8.40;4.60;;;;;;;;;;5013738;28;20437;-42
2023/08/09 12:00:00;;;;;;;5.00;3.23;;;;;;;;;;5013417;28;20479;-42
2023/08/09 12:02:43;;;;;;;9.13;3.73;;;;;;;;;;5013651;28;20826;-42
2023/08/09 12:05:12;;;;;;;6.07;3.53;;;;;;;;;;5013375;28;20862;-44
2023/08/09 12:07:40;;;;;;;6.00;3.37;;;;;;;;;;5013577;28;20803;-42
2023/08/09 12:10:11;;;;;;;6.33;3.43;;;;;;;;;;5013019;28;20471;-42
2023/08/09 12:12:39;;;;;;;10.33;4.60;;;;;;;;;;5013492;28;20440;-41
2023/08/09 12:15:09;;;;;;;8.13;4.73;;;;;;;;;;5013389;28;20448;-42
2023/08/09 12:17:36;;;;;;;6.40;3.60;;;;;;;;;;5014139;28;20486;-44
2023/08/09 12:20:06;;;;;;;11.30;3.67;;;;;;;;;;5013613;28;20468;-44
2023/08/09 12:22:34;;;;;;;8.13;4.00;;;;;;;;;;5013506;28;20445;-42
2023/08/09 12:25:01;;;;;;;11.80;4.17;;;;;;;;;;5014181;28;20445;-42
2023/08/09 12:27:30;;;;;;;7.70;3.93;;;;;;;;;;5013918;28;20436;-42
2023/08/09 12:29:58;;;;;;;4.27;3.77;;;;;;;;;;5013252;28;20475;-44
2023/08/09 12:32:25;;;;;;;7.57;4.13;;;;;;;;;;5013436;28;20467;-42
2023/08/09 12:34:54;;;;;;;4.50;3.63;;;;;;;;;;5013386;28;20441;-43
2023/08/09 12:37:22;;;;;;;6.83;3.83;;;;;;;;;;5013844;28;20834;-42
2023/08/09 12:39:50;;;;;;;9.17;4.10;;;;;;;;;;5013089;28;20551;-42
2023/08/09 12:42:18;;;;;;;9.50;3.80;;;;;;;;;;5013106;28;20482;-42
2023/08/09 12:44:47;;;;;;;8.80;4.60;;;;;;;;;;5013194;28;20993;-45
2023/08/09 12:47:14;;;;;;;4.73;3.20;;;;;;;;;;5013093;28;20456;-43
2023/08/09 12:49:41;;;;;;;5.63;3.50;;;;;;;;;;5012496;28;20473;-42
2023/08/09 12:52:09;;;;;;;8.30;4.60;;;;;;;;;;5013437;28;20424;-44
2023/08/09 12:54:36;;;;;;;8.03;4.20;;;;;;;;;;5013598;28;20540;-45
2023/08/09 12:57:04;;;;;;;10.23;5.20;;;;;;;;;;5013578;28;20465;-42
2023/08/09 12:59:32;;;;;;;13.17;6.03;;;;;;;;;;5013385;28;20465;-42
2023/08/09 13:02:01;;;;;;;6.87;4.80;;;;;;;;;;5013230;28;20472;-44
2023/08/09 13:04:30;;;;;;;10.20;4.90;;;;;;;;;;5013681;28;20440;-44
2023/08/09 13:06:58;;;;;;;14.67;3.77;;;;;;;;;;5013323;28;20535;-42
2023/08/09 13:09:27;;;;;;;8.40;4.83;;;;;;;;;;5013375;28;21066;-43
2023/08/09 13:12:03;;;;;;;10.33;4.40;;;;;;;;;;5013341;28;20464;-44
2023/08/09 13:14:31;;;;;;;8.10;4.43;;;;;;;;;;5013325;28;20433;-42
2023/08/09 13:16:58;;;;;;;11.23;4.97;;;;;;;;;;5013176;28;20489;-41
2023/08/09 13:19:27;;;;;;;10.47;4.50;;;;;;;;;;5013049;28;20484;-41
2023/08/09 13:21:54;;;;;;;7.83;5.07;;;;;;;;;;5012190;28;21069;-42
2023/08/09 13:24:22;;;;;;;7.10;3.80;;;;;;;;;;5013041;28;20428;-43
2023/08/09 13:26:49;;;;;;;11.10;4.43;;;;;;;;;;5013216;28;20461;-42
2023/08/09 13:29:19;;;;;;;10.70;4.33;;;;;;;;;;5012570;28;20460;-43
2023/08/09 13:31:47;;;;;;;12.23;4.30;;;;;;;;;;5012720;28;20425;-46
2023/08/09 13:34:14;;;;;;;11.20;4.40;;;;;;;;;;5013028;28;20445;-47
2023/08/09 13:36:43;;;;;;;10.27;5.03;;;;;;;;;;5013078;28;20456;-44
2023/08/09 13:39:11;;;;;;;8.60;4.33;;;;;;;;;;5012834;28;20539;-42
2023/08/09 13:41:38;;;;;;;9.60;4.10;;;;;;;;;;5012627;28;20527;-42
2023/08/09 13:44:06;;;;;;;6.27;3.90;;;;;;;;;;5013839;28;20432;-43
2023/08/09 13:46:34;;;;;;;9.67;4.70;;;;;;;;;;5013478;28;20511;-42
2023/08/09 13:49:01;;;;;;;18.07;4.93;;;;;;;;;;5012461;28;20512;-44
2023/08/09 13:51:29;;;;;;;6.30;3.83;;;;;;;;;;5012346;28;20450;-45
2023/08/09 13:53:58;;;;;;;12.13;4.40;;;;;;;;;;5012993;28;20779;-42
2023/08/09 13:56:25;;;;;;;10.07;4.40;;;;;;;;;;5013159;28;20812;-42
2023/08/09 13:58:53;;;;;;;9.33;4.30;;;;;;;;;;5012619;28;20523;-43
2023/08/09 14:01:20;;;;;;;10.10;4.30;;;;;;;;;;5012850;28;20476;-42
2023/08/09 14:03:49;;;;;;;7.00;3.77;;;;;;;;;;5012463;28;20718;-44
2023/08/09 14:06:17;;;;;;;17.20;4.13;;;;;;;;;;5012562;28;20460;-45
2023/08/09 14:08:44;;;;;;;6.23;3.57;;;;;;;;;;5012602;28;20460;-43
2023/08/09 14:11:13;;;;;;;6.23;3.90;;;;;;;;;;5012724;28;20917;-41
2023/08/09 14:13:41;;;;;;;8.30;3.93;;;;;;;;;;5012765;28;20425;-45
2023/08/09 14:16:08;;;;;;;8.60;4.13;;;;;;;;;;5012670;28;20460;-42
2023/08/09 14:18:36;;;;;;;8.83;4.13;;;;;;;;;;5016507;28;20448;-44
2023/08/09 14:21:03;;;;;;;9.57;4.30;;;;;;;;;;5016001;28;20883;-43
2023/08/09 14:23:31;;;;;;;9.20;3.47;;;;;;;;;;5016258;28;20451;-42
2023/08/09 14:25:58;;;;;;;10.20;4.60;;;;;;;;;;5016768;28;20498;-42
2023/08/09 14:28:27;;;;;;;7.87;3.80;;;;;;;;;;5016836;28;20436;-44
2023/08/09 14:30:55;;;;;;;8.90;4.10;;;;;;;;;;5016040;28;20532;-43
2023/08/09 14:33:22;;;;;;;10.33;3.97;;;;;;;;;;5016281;28;20444;-41